Terminal Aerodrome Forecast
Issued by NWS

Home | Current Version | Previous Version | Graphics & Text | Print | Product List | Glossary On
Versions: 1 2 3 4 5 6 7 8 9 10 11 12 13 14 15 16 17 18 19 20 21 22 23 24 25
072
FTUS43 KTOP 251442 AAA
TAFFOE
TAF AMD
KFOE 251442Z 2515/2612 34013G21KT 6SM -SHRA OVC009
      TEMPO 2515/2517 2SM +RA OVC006
     FM251900 35013KT P6SM VCSH OVC011
     FM260300 34009KT P6SM OVC011=

USA.gov is the U.S. government's official web portal to all federal, state and local government web resources and services.